sensor_id;sensor_type;location;lat;lon;timestamp;pressure;altitude;pressure_sealevel;temperature;humidity
71666;BME280;59503;53.486;10.196;2023-09-07T00:00:20;102346.44;;;18.18;100.00
71666;BME280;59503;53.486;10.196;2023-09-07T00:02:45;102350.66;;;18.08;100.00
71666;BME280;59503;53.486;10.196;2023-09-07T00:05:11;102346.28;;;18.04;100.00
71666;BME280;59503;53.486;10.196;2023-09-07T00:07:38;102345.91;;;18.05;100.00
71666;BME280;59503;53.486;10.196;2023-09-07T00:10:04;102347.78;;;18.01;100.00
71666;BME280;59503;53.486;10.196;2023-09-07T00:12:29;102346.88;;;17.90;100.00
71666;BME280;59503;53.486;10.196;2023-09-07T00:14:55;102359.31;;;17.81;100.00
71666;BME280;59503;53.486;10.196;2023-09-07T00:17:21;102358.41;;;17.73;100.00
71666;BME280;59503;53.486;10.196;2023-09-07T00:19:47;102357.47;;;17.62;100.00
71666;BME280;59503;53.486;10.196;2023-09-07T00:22:14;102366.00;;;17.54;100.00
71666;BME280;59503;53.486;10.196;2023-09-07T00:24:40;102360.28;;;17.43;100.00
71666;BME280;59503;53.486;10.196;2023-09-07T00:27:06;102358.59;;;17.35;100.00
71666;BME280;59503;53.486;10.196;2023-09-07T00:29:34;102354.91;;;17.27;100.00
71666;BME280;59503;53.486;10.196;2023-09-07T00:31:59;102362.72;;;17.25;100.00
71666;BME280;59503;53.486;10.196;2023-09-07T00:34:25;102349.97;;;17.14;100.00
71666;BME280;59503;53.486;10.196;2023-09-07T00:36:50;102363.00;;;17.17;100.00
71666;BME280;59503;53.486;10.196;2023-09-07T00:39:16;102351.16;;;17.13;100.00
71666;BME280;59503;53.486;10.196;2023-09-07T00:41:41;102360.53;;;17.12;100.00
71666;BME280;59503;53.486;10.196;2023-09-07T00:44:06;102354.19;;;17.08;100.00
71666;BME280;59503;53.486;10.196;2023-09-07T00:46:32;102362.56;;;17.15;100.00
71666;BME280;59503;53.486;10.196;2023-09-07T00:48:58;102351.22;;;17.16;100.00
71666;BME280;59503;53.486;10.196;2023-09-07T00:51:24;102357.84;;;17.38;100.00
71666;BME280;59503;53.486;10.196;2023-09-07T00:53:50;102360.72;;;17.45;100.00
71666;BME280;59503;53.486;10.196;2023-09-07T00:56:16;102348.69;;;17.53;100.00
71666;BME280;59503;53.486;10.196;2023-09-07T00:58:42;102354.66;;;17.59;100.00
71666;BME280;59503;53.486;10.196;2023-09-07T01:01:08;102353.19;;;17.65;100.00
71666;BME280;59503;53.486;10.196;2023-09-07T01:03:34;102352.03;;;17.66;100.00
71666;BME280;59503;53.486;10.196;2023-09-07T01:06:20;102354.03;;;17.69;100.00
71666;BME280;59503;53.486;10.196;2023-09-07T01:08:51;102348.09;;;17.67;100.00
71666;BME280;59503;53.486;10.196;2023-09-07T01:11:18;102349.28;;;17.66;100.00
71666;BME280;59503;53.486;10.196;2023-09-07T01:13:48;102348.47;;;17.65;100.00
71666;BME280;59503;53.486;10.196;2023-09-07T01:16:14;102352.75;;;17.63;100.00
71666;BME280;59503;53.486;10.196;2023-09-07T01:18:40;102345.69;;;17.62;100.00
71666;BME280;59503;53.486;10.196;2023-09-07T01:21:07;102343.25;;;17.57;100.00
71666;BME280;59503;53.486;10.196;2023-09-07T01:23:36;102352.25;;;17.54;100.00
71666;BME280;59503;53.486;10.196;2023-09-07T01:26:03;102334.38;;;17.44;100.00
71666;BME280;59503;53.486;10.196;2023-09-07T01:28:29;102350.94;;;17.48;100.00
71666;BME280;59503;53.486;10.196;2023-09-07T01:30:55;102345.38;;;17.44;100.00
71666;BME280;59503;53.486;10.196;2023-09-07T01:33:20;102342.22;;;17.42;100.00
71666;BME280;59503;53.486;10.196;2023-09-07T01:35:46;102344.09;;;17.38;100.00
71666;BME280;59503;53.486;10.196;2023-09-07T01:38:11;102343.19;;;17.30;100.00
71666;BME280;59503;53.486;10.196;2023-09-07T01:40:37;102338.38;;;17.24;100.00
71666;BME280;59503;53.486;10.196;2023-09-07T01:43:02;102341.34;;;17.15;100.00
71666;BME280;59503;53.486;10.196;2023-09-07T01:45:28;102338.50;;;17.08;100.00
71666;BME280;59503;53.486;10.196;2023-09-07T01:47:53;102349.38;;;17.01;100.00
71666;BME280;59503;53.486;10.196;2023-09-07T01:50:19;102355.91;;;16.93;100.00
71666;BME280;59503;53.486;10.196;2023-09-07T01:52:47;102341.53;;;16.81;100.00
71666;BME280;59503;53.486;10.196;2023-09-07T01:55:13;102343.41;;;16.77;100.00
71666;BME280;59503;53.486;10.196;2023-09-07T01:57:39;102344.47;;;16.69;100.00
71666;BME280;59503;53.486;10.196;2023-09-07T02:00:05;102349.59;;;16.70;100.00
71666;BME280;59503;53.486;10.196;2023-09-07T02:02:30;102360.50;;;16.67;100.00
71666;BME280;59503;53.486;10.196;2023-09-07T02:04:56;102349.41;;;16.60;100.00
71666;BME280;59503;53.486;10.196;2023-09-07T02:07:21;102356.41;;;16.57;100.00
71666;BME280;59503;53.486;10.196;2023-09-07T02:09:46;102352.75;;;16.50;100.00
71666;BME280;59503;53.486;10.196;2023-09-07T02:12:12;102364.41;;;16.47;100.00
71666;BME280;59503;53.486;10.196;2023-09-07T02:14:37;102359.19;;;16.42;100.00
71666;BME280;59503;53.486;10.196;2023-09-07T02:17:03;102352.41;;;16.36;100.00
71666;BME280;59503;53.486;10.196;2023-09-07T02:19:28;102357.53;;;16.37;100.00
71666;BME280;59503;53.486;10.196;2023-09-07T02:21:54;102352.06;;;16.37;100.00
71666;BME280;59503;53.486;10.196;2023-09-07T02:24:19;102358.50;;;16.45;100.00
71666;BME280;59503;53.486;10.196;2023-09-07T02:26:45;102334.78;;;16.37;100.00
71666;BME280;59503;53.486;10.196;2023-09-07T02:29:13;102347.19;;;16.46;100.00
71666;BME280;59503;53.486;10.196;2023-09-07T02:31:40;102349.91;;;16.46;100.00
71666;BME280;59503;53.486;10.196;2023-09-07T02:34:05;102360.44;;;16.44;100.00
71666;BME280;59503;53.486;10.196;2023-09-07T02:36:31;102356.09;;;16.43;100.00
71666;BME280;59503;53.486;10.196;2023-09-07T02:38:57;102353.63;;;16.38;100.00
71666;BME280;59503;53.486;10.196;2023-09-07T02:41:22;102356.72;;;16.37;100.00
71666;BME280;59503;53.486;10.196;2023-09-07T02:43:48;102355.44;;;16.31;100.00
71666;BME280;59503;53.486;10.196;2023-09-07T02:46:13;102365.19;;;16.28;100.00
71666;BME280;59503;53.486;10.196;2023-09-07T02:48:39;102362.66;;;16.19;100.00
71666;BME280;59503;53.486;10.196;2023-09-07T02:51:04;102363.28;;;16.13;100.00
71666;BME280;59503;53.486;10.196;2023-09-07T02:53:30;102368.22;;;16.04;100.00
71666;BME280;59503;53.486;10.196;2023-09-07T02:55:55;102362.50;;;15.93;100.00
71666;BME280;59503;53.486;10.196;2023-09-07T02:58:22;102368.25;;;15.88;100.00
71666;BME280;59503;53.486;10.196;2023-09-07T03:00:48;102372.00;;;15.80;100.00
71666;BME280;59503;53.486;10.196;2023-09-07T03:03:14;102372.63;;;15.74;100.00
71666;BME280;59503;53.486;10.196;2023-09-07T03:05:40;102372.81;;;15.65;100.00
71666;BME280;59503;53.486;10.196;2023-09-07T03:08:06;102381.75;;;15.62;100.00
71666;BME280;59503;53.486;10.196;2023-09-07T03:10:32;102378.13;;;15.58;100.00
71666;BME280;59503;53.486;10.196;2023-09-07T03:12:58;102384.78;;;15.57;100.00
71666;BME280;59503;53.486;10.196;2023-09-07T03:15:23;102379.28;;;15.57;100.00
71666;BME280;59503;53.486;10.196;2023-09-07T03:17:48;102383.34;;;15.63;100.00
71666;BME280;59503;53.486;10.196;2023-09-07T03:20:14;102385.00;;;15.68;100.00
71666;BME280;59503;53.486;10.196;2023-09-07T03:22:43;102380.66;;;15.82;100.00
71666;BME280;59503;53.486;10.196;2023-09-07T03:25:10;102379.31;;;15.92;100.00
71666;BME280;59503;53.486;10.196;2023-09-07T03:27:36;102387.34;;;16.00;100.00
71666;BME280;59503;53.486;10.196;2023-09-07T03:30:02;102368.50;;;15.99;100.00
71666;BME280;59503;53.486;10.196;2023-09-07T03:32:29;102380.19;;;16.15;100.00
71666;BME280;59503;53.486;10.196;2023-09-07T03:34:58;102382.38;;;16.25;100.00
71666;BME280;59503;53.486;10.196;2023-09-07T03:37:24;102382.44;;;16.29;100.00
71666;BME280;59503;53.486;10.196;2023-09-07T03:39:50;102388.81;;;16.33;100.00
71666;BME280;59503;53.486;10.196;2023-09-07T03:42:15;102382.59;;;16.36;100.00
71666;BME280;59503;53.486;10.196;2023-09-07T03:44:41;102385.44;;;16.39;100.00
71666;BME280;59503;53.486;10.196;2023-09-07T03:47:07;102387.28;;;16.35;100.00
71666;BME280;59503;53.486;10.196;2023-09-07T03:49:32;102392.00;;;16.35;100.00
71666;BME280;59503;53.486;10.196;2023-09-07T03:51:57;102394.22;;;16.29;100.00
71666;BME280;59503;53.486;10.196;2023-09-07T03:54:23;102383.97;;;16.26;100.00
71666;BME280;59503;53.486;10.196;2023-09-07T03:56:48;102378.25;;;16.15;100.00
71666;BME280;59503;53.486;10.196;2023-09-07T03:59:14;102384.56;;;16.16;100.00
71666;BME280;59503;53.486;10.196;2023-09-07T04:01:39;102398.69;;;16.18;100.00
71666;BME280;59503;53.486;10.196;2023-09-07T04:04:04;102402.22;;;16.18;100.00
71666;BME280;59503;53.486;10.196;2023-09-07T04:06:30;102397.84;;;16.14;100.00
71666;BME280;59503;53.486;10.196;2023-09-07T04:08:56;102400.56;;;16.14;100.00
71666;BME280;59503;53.486;10.196;2023-09-07T04:11:21;102397.31;;;16.08;100.00
71666;BME280;59503;53.486;10.196;2023-09-07T04:13:46;102400.41;;;16.07;100.00
71666;BME280;59503;53.486;10.196;2023-09-07T04:16:12;102395.66;;;16.04;100.00
71666;BME280;59503;53.486;10.196;2023-09-07T04:18:37;102401.50;;;16.02;100.00
71666;BME280;59503;53.486;10.196;2023-09-07T04:21:07;102393.47;;;15.94;100.00
71666;BME280;59503;53.486;10.196;2023-09-07T04:23:32;102401.69;;;15.94;100.00
71666;BME280;59503;53.486;10.196;2023-09-07T04:26:09;102394.97;;;15.91;100.00
71666;BME280;59503;53.486;10.196;2023-09-07T04:28:36;102403.47;;;15.86;100.00
71666;BME280;59503;53.486;10.196;2023-09-07T04:31:02;102408.19;;;15.86;100.00
71666;BME280;59503;53.486;10.196;2023-09-07T04:33:31;102401.00;;;15.81;100.00
71666;BME280;59503;53.486;10.196;2023-09-07T04:36:06;102411.53;;;15.79;100.00
71666;BME280;59503;53.486;10.196;2023-09-07T04:38:32;102406.75;;;15.76;100.00
71666;BME280;59503;53.486;10.196;2023-09-07T04:41:08;102404.72;;;15.73;100.00
71666;BME280;59503;53.486;10.196;2023-09-07T04:43:34;102409.59;;;15.80;100.00
71666;BME280;59503;53.486;10.196;2023-09-07T04:46:00;102415.78;;;15.77;100.00
71666;BME280;59503;53.486;10.196;2023-09-07T04:48:25;102416.16;;;15.75;100.00
71666;BME280;59503;53.486;10.196;2023-09-07T04:51:17;102420.63;;;15.83;100.00
71666;BME280;59503;53.486;10.196;2023-09-07T04:53:42;102416.41;;;15.86;100.00
71666;BME280;59503;53.486;10.196;2023-09-07T04:56:08;102425.50;;;15.90;100.00
71666;BME280;59503;53.486;10.196;2023-09-07T04:58:34;102418.50;;;15.92;100.00
71666;BME280;59503;53.486;10.196;2023-09-07T05:01:04;102419.09;;;16.01;100.00
71666;BME280;59503;53.486;10.196;2023-09-07T05:03:30;102424.28;;;16.06;100.00
71666;BME280;59503;53.486;10.196;2023-09-07T05:05:55;102419.41;;;16.15;100.00
71666;BME280;59503;53.486;10.196;2023-09-07T05:08:21;102420.28;;;16.19;100.00
71666;BME280;59503;53.486;10.196;2023-09-07T05:10:48;102424.34;;;16.26;100.00
71666;BME280;59503;53.486;10.196;2023-09-07T05:13:13;102432.66;;;16.29;100.00
71666;BME280;59503;53.486;10.196;2023-09-07T05:15:50;102424.59;;;16.36;100.00
71666;BME280;59503;53.486;10.196;2023-09-07T05:18:16;102430.56;;;16.42;100.00
71666;BME280;59503;53.486;10.196;2023-09-07T05:20:41;102429.25;;;16.51;100.00
71666;BME280;59503;53.486;10.196;2023-09-07T05:23:07;102430.91;;;16.56;100.00
71666;BME280;59503;53.486;10.196;2023-09-07T05:25:32;102426.28;;;16.60;100.00
71666;BME280;59503;53.486;10.196;2023-09-07T05:27:58;102427.13;;;16.64;100.00
71666;BME280;59503;53.486;10.196;2023-09-07T05:30:23;102426.03;;;16.68;100.00
71666;BME280;59503;53.486;10.196;2023-09-07T05:32:48;102429.66;;;16.72;100.00
71666;BME280;59503;53.486;10.196;2023-09-07T05:35:14;102424.69;;;16.78;100.00
71666;BME280;59503;53.486;10.196;2023-09-07T05:37:41;102432.63;;;16.83;100.00
71666;BME280;59503;53.486;10.196;2023-09-07T05:40:07;102434.34;;;16.91;100.00
71666;BME280;59503;53.486;10.196;2023-09-07T05:42:33;102432.47;;;16.95;100.00
71666;BME280;59503;53.486;10.196;2023-09-07T05:44:58;102442.88;;;17.05;100.00
71666;BME280;59503;53.486;10.196;2023-09-07T05:47:24;102441.41;;;17.11;100.00
71666;BME280;59503;53.486;10.196;2023-09-07T05:49:51;102442.72;;;17.17;100.00
71666;BME280;59503;53.486;10.196;2023-09-07T05:52:16;102448.31;;;17.24;100.00
71666;BME280;59503;53.486;10.196;2023-09-07T05:54:42;102448.06;;;17.32;100.00
71666;BME280;59503;53.486;10.196;2023-09-07T05:57:07;102450.56;;;17.41;100.00
71666;BME280;59503;53.486;10.196;2023-09-07T05:59:33;102449.63;;;17.53;100.00
71666;BME280;59503;53.486;10.196;2023-09-07T06:01:58;102451.38;;;17.64;100.00
71666;BME280;59503;53.486;10.196;2023-09-07T06:04:23;102446.44;;;17.73;100.00
71666;BME280;59503;53.486;10.196;2023-09-07T06:06:49;102453.25;;;17.83;100.00
71666;BME280;59503;53.486;10.196;2023-09-07T06:09:14;102453.88;;;17.95;100.00
71666;BME280;59503;53.486;10.196;2023-09-07T06:11:39;102455.59;;;18.07;100.00
71666;BME280;59503;53.486;10.196;2023-09-07T06:14:05;102451.84;;;18.18;100.00
71666;BME280;59503;53.486;10.196;2023-09-07T06:16:30;102452.81;;;18.33;100.00
71666;BME280;59503;53.486;10.196;2023-09-07T06:18:56;102447.91;;;18.45;100.00
71666;BME280;59503;53.486;10.196;2023-09-07T06:21:21;102454.06;;;18.65;100.00
71666;BME280;59503;53.486;10.196;2023-09-07T06:23:46;102456.19;;;18.79;100.00
71666;BME280;59503;53.486;10.196;2023-09-07T06:26:12;102463.09;;;18.95;100.00
71666;BME280;59503;53.486;10.196;2023-09-07T06:28:39;102463.25;;;19.09;100.00
71666;BME280;59503;53.486;10.196;2023-09-07T06:31:04;102465.00;;;19.28;100.00
71666;BME280;59503;53.486;10.196;2023-09-07T06:33:30;102467.19;;;19.45;100.00
71666;BME280;59503;53.486;10.196;2023-09-07T06:35:55;102466.88;;;19.53;100.00
71666;BME280;59503;53.486;10.196;2023-09-07T06:38:22;102461.06;;;19.65;100.00
71666;BME280;59503;53.486;10.196;2023-09-07T06:40:48;102465.09;;;19.75;100.00
71666;BME280;59503;53.486;10.196;2023-09-07T06:43:14;102454.47;;;19.81;100.00
71666;BME280;59503;53.486;10.196;2023-09-07T06:45:39;102454.50;;;19.84;100.00
71666;BME280;59503;53.486;10.196;2023-09-07T06:48:05;102460.88;;;19.95;100.00
71666;BME280;59503;53.486;10.196;2023-09-07T06:50:31;102459.41;;;20.08;100.00
71666;BME280;59503;53.486;10.196;2023-09-07T06:52:56;102459.41;;;20.12;100.00
71666;BME280;59503;53.486;10.196;2023-09-07T06:55:21;102465.03;;;20.22;100.00
71666;BME280;59503;53.486;10.196;2023-09-07T06:57:47;102458.78;;;20.32;100.00
71666;BME280;59503;53.486;10.196;2023-09-07T07:00:12;102469.91;;;20.50;100.00
71666;BME280;59503;53.486;10.196;2023-09-07T07:02:38;102464.44;;;20.60;100.00
71666;BME280;59503;53.486;10.196;2023-09-07T07:05:04;102468.47;;;20.77;100.00
71666;BME280;59503;53.486;10.196;2023-09-07T07:07:30;102474.03;;;20.87;100.00
71666;BME280;59503;53.486;10.196;2023-09-07T07:09:56;102478.84;;;21.01;100.00
71666;BME280;59503;53.486;10.196;2023-09-07T07:12:21;102476.50;;;21.17;100.00
71666;BME280;59503;53.486;10.196;2023-09-07T07:14:46;102488.41;;;21.39;100.00
71666;BME280;59503;53.486;10.196;2023-09-07T07:17:12;102469.88;;;21.78;100.00
71666;BME280;59503;53.486;10.196;2023-09-07T07:19:37;102478.94;;;21.96;100.00
71666;BME280;59503;53.486;10.196;2023-09-07T07:22:03;102484.47;;;22.13;100.00
71666;BME280;59503;53.486;10.196;2023-09-07T07:24:28;102483.66;;;22.34;100.00
71666;BME280;59503;53.486;10.196;2023-09-07T07:26:54;102492.31;;;22.50;100.00
71666;BME280;59503;53.486;10.196;2023-09-07T07:29:19;102487.50;;;22.68;100.00
71666;BME280;59503;53.486;10.196;2023-09-07T07:31:45;102492.28;;;22.71;100.00
71666;BME280;59503;53.486;10.196;2023-09-07T07:34:10;102477.44;;;23.02;100.00
71666;BME280;59503;53.486;10.196;2023-09-07T07:36:35;102479.72;;;23.28;100.00
71666;BME280;59503;53.486;10.196;2023-09-07T07:39:02;102478.69;;;23.60;100.00
71666;BME280;59503;53.486;10.196;2023-09-07T07:41:28;102482.75;;;23.45;100.00
71666;BME280;59503;53.486;10.196;2023-09-07T07:43:54;102485.94;;;23.91;100.00
71666;BME280;59503;53.486;10.196;2023-09-07T07:46:19;102479.34;;;24.18;100.00
71666;BME280;59503;53.486;10.196;2023-09-07T07:48:45;102481.78;;;24.50;98.88
71666;BME280;59503;53.486;10.196;2023-09-07T07:51:10;102478.03;;;24.97;90.96
71666;BME280;59503;53.486;10.196;2023-09-07T07:53:35;102477.50;;;25.32;87.56
71666;BME280;59503;53.486;10.196;2023-09-07T07:56:01;102489.22;;;25.73;83.44
71666;BME280;59503;53.486;10.196;2023-09-07T07:58:28;102478.78;;;25.54;82.97
71666;BME280;59503;53.486;10.196;2023-09-07T08:00:53;102484.34;;;25.54;81.19
71666;BME280;59503;53.486;10.196;2023-09-07T08:03:19;102478.03;;;25.77;78.34
71666;BME280;59503;53.486;10.196;2023-09-07T08:05:44;102475.94;;;25.58;78.84
71666;BME280;59503;53.486;10.196;2023-09-07T08:08:09;102471.47;;;25.87;76.78
71666;BME280;59503;53.486;10.196;2023-09-07T08:10:36;102477.69;;;26.18;74.22
71666;BME280;59503;53.486;10.196;2023-09-07T08:13:06;102474.31;;;26.49;69.76
71666;BME280;59503;53.486;10.196;2023-09-07T08:15:32;102478.22;;;26.52;70.41
71666;BME280;59503;53.486;10.196;2023-09-07T08:17:58;102478.00;;;26.43;70.33
71666;BME280;59503;53.486;10.196;2023-09-07T08:20:25;102485.53;;;26.46;68.81
71666;BME280;59503;53.486;10.196;2023-09-07T08:22:50;102472.44;;;26.82;69.06
71666;BME280;59503;53.486;10.196;2023-09-07T08:25:18;102468.59;;;27.12;66.57
71666;BME280;59503;53.486;10.196;2023-09-07T08:27:43;102469.09;;;27.07;65.46
71666;BME280;59503;53.486;10.196;2023-09-07T08:30:11;102466.41;;;27.19;65.38
71666;BME280;59503;53.486;10.196;2023-09-07T08:32:37;102467.63;;;27.18;64.64
71666;BME280;59503;53.486;10.196;2023-09-07T08:35:04;102461.56;;;27.55;66.91
71666;BME280;59503;53.486;10.196;2023-09-07T08:37:31;102462.69;;;27.58;62.84
71666;BME280;59503;53.486;10.196;2023-09-07T08:39:58;102468.69;;;27.88;61.74
71666;BME280;59503;53.486;10.196;2023-09-07T08:42:24;102451.72;;;28.12;61.35
71666;BME280;59503;53.486;10.196;2023-09-07T08:44:51;102466.78;;;28.01;57.90
71666;BME280;59503;53.486;10.196;2023-09-07T08:47:18;102467.53;;;27.86;58.59
71666;BME280;59503;53.486;10.196;2023-09-07T08:49:46;102466.44;;;27.51;63.89
71666;BME280;59503;53.486;10.196;2023-09-07T08:52:13;102469.03;;;28.06;58.82
71666;BME280;59503;53.486;10.196;2023-09-07T08:54:39;102469.91;;;28.03;57.42
71666;BME280;59503;53.486;10.196;2023-09-07T08:57:07;102468.25;;;28.06;58.03
71666;BME280;59503;53.486;10.196;2023-09-07T08:59:34;102479.19;;;27.84;56.79
71666;BME280;59503;53.486;10.196;2023-09-07T09:01:59;102471.97;;;27.55;57.90
71666;BME280;59503;53.486;10.196;2023-09-07T09:04:26;102467.75;;;27.63;56.99
71666;BME280;59503;53.486;10.196;2023-09-07T09:06:53;102462.41;;;28.00;57.69
71666;BME280;59503;53.486;10.196;2023-09-07T09:09:22;102462.72;;;28.19;55.53
71666;BME280;59503;53.486;10.196;2023-09-07T09:11:51;102463.22;;;28.71;56.51
71666;BME280;59503;53.486;10.196;2023-09-07T09:14:17;102464.78;;;28.72;54.40
71666;BME280;59503;53.486;10.196;2023-09-07T09:16:52;102465.94;;;28.99;54.81
71666;BME280;59503;53.486;10.196;2023-09-07T09:19:18;102461.56;;;28.86;53.00
71666;BME280;59503;53.486;10.196;2023-09-07T09:21:44;102466.69;;;28.75;52.94
71666;BME280;59503;53.486;10.196;2023-09-07T09:24:11;102454.91;;;28.55;52.44
71666;BME280;59503;53.486;10.196;2023-09-07T09:26:40;102454.50;;;28.12;53.02
71666;BME280;59503;53.486;10.196;2023-09-07T09:29:05;102455.50;;;28.05;54.63
71666;BME280;59503;53.486;10.196;2023-09-07T09:31:31;102457.03;;;27.61;54.97
71666;BME280;59503;53.486;10.196;2023-09-07T09:33:56;102457.88;;;27.42;56.83
71666;BME280;59503;53.486;10.196;2023-09-07T09:36:22;102462.63;;;27.45;55.78
71666;BME280;59503;53.486;10.196;2023-09-07T09:38:51;102459.19;;;27.54;57.07
71666;BME280;59503;53.486;10.196;2023-09-07T09:41:19;102439.81;;;27.31;57.16
71666;BME280;59503;53.486;10.196;2023-09-07T09:43:46;102456.63;;;27.11;57.19
71666;BME280;59503;53.486;10.196;2023-09-07T09:46:14;102444.06;;;27.03;58.00
71666;BME280;59503;53.486;10.196;2023-09-07T09:48:41;102450.38;;;26.87;60.78
71666;BME280;59503;53.486;10.196;2023-09-07T09:51:07;102453.91;;;26.72;59.47
71666;BME280;59503;53.486;10.196;2023-09-07T09:53:32;102456.97;;;26.58;61.39
71666;BME280;59503;53.486;10.196;2023-09-07T09:55:58;102460.97;;;26.76;61.15
71666;BME280;59503;53.486;10.196;2023-09-07T09:58:24;102441.69;;;27.02;61.39
71666;BME280;59503;53.486;10.196;2023-09-07T10:00:55;102452.94;;;27.14;57.96
71666;BME280;59503;53.486;10.196;2023-09-07T10:03:34;102447.53;;;27.07;57.56
71666;BME280;59503;53.486;10.196;2023-09-07T10:06:12;102438.81;;;26.69;60.22
71666;BME280;59503;53.486;10.196;2023-09-07T10:08:52;102437.44;;;26.77;60.20
71666;BME280;59503;53.486;10.196;2023-09-07T10:11:27;102442.75;;;26.72;59.03
71666;BME280;59503;53.486;10.196;2023-09-07T10:13:57;102441.66;;;26.46;58.76
71666;BME280;59503;53.486;10.196;2023-09-07T10:16:23;102432.22;;;26.40;59.16
71666;BME280;59503;53.486;10.196;2023-09-07T10:18:49;102431.69;;;26.29;56.70
71666;BME280;59503;53.486;10.196;2023-09-07T10:21:14;102428.59;;;26.24;56.36
71666;BME280;59503;53.486;10.196;2023-09-07T10:23:44;102433.44;;;26.20;56.68
71666;BME280;59503;53.486;10.196;2023-09-07T10:26:18;102426.44;;;26.12;55.66
71666;BME280;59503;53.486;10.196;2023-09-07T10:28:44;102422.59;;;26.06;57.31
71666;BME280;59503;53.486;10.196;2023-09-07T10:31:15;102423.88;;;25.98;55.80
71666;BME280;59503;53.486;10.196;2023-09-07T10:33:40;102423.44;;;25.99;57.54
71666;BME280;59503;53.486;10.196;2023-09-07T10:36:06;102425.22;;;26.13;56.15
71666;BME280;59503;53.486;10.196;2023-09-07T10:38:34;102424.88;;;26.11;56.61
71666;BME280;59503;53.486;10.196;2023-09-07T10:41:01;102417.00;;;26.06;58.18
71666;BME280;59503;53.486;10.196;2023-09-07T10:43:32;102416.44;;;26.14;57.29
71666;BME280;59503;53.486;10.196;2023-09-07T10:45:59;102413.16;;;26.19;58.09
71666;BME280;59503;53.486;10.196;2023-09-07T10:48:27;102404.69;;;26.23;61.38
71666;BME280;59503;53.486;10.196;2023-09-07T10:50:53;102412.91;;;26.30;61.08
71666;BME280;59503;53.486;10.196;2023-09-07T10:53:31;102408.22;;;26.27;58.76
71666;BME280;59503;53.486;10.196;2023-09-07T10:55:59;102400.63;;;26.27;61.22
71666;BME280;59503;53.486;10.196;2023-09-07T10:58:29;102397.50;;;26.25;63.96
71666;BME280;59503;53.486;10.196;2023-09-07T11:00:55;102386.03;;;26.20;60.64
71666;BME280;59503;53.486;10.196;2023-09-07T11:03:21;102396.31;;;26.23;63.88
71666;BME280;59503;53.486;10.196;2023-09-07T11:05:47;102390.00;;;26.22;61.62
71666;BME280;59503;53.486;10.196;2023-09-07T11:08:13;102391.03;;;26.28;61.18
71666;BME280;59503;53.486;10.196;2023-09-07T11:10:39;102399.47;;;26.25;60.13
71666;BME280;59503;53.486;10.196;2023-09-07T11:13:05;102393.47;;;26.26;60.14
71666;BME280;59503;53.486;10.196;2023-09-07T11:15:33;102397.34;;;26.32;60.12
71666;BME280;59503;53.486;10.196;2023-09-07T11:18:07;102390.06;;;26.19;59.63
71666;BME280;59503;53.486;10.196;2023-09-07T11:20:34;102386.75;;;26.24;56.69
71666;BME280;59503;53.486;10.196;2023-09-07T11:23:00;102384.66;;;26.28;57.00
71666;BME280;59503;53.486;10.196;2023-09-07T11:25:26;102388.25;;;26.28;56.40
71666;BME280;59503;53.486;10.196;2023-09-07T11:27:52;102381.31;;;26.36;59.49
71666;BME280;59503;53.486;10.196;2023-09-07T11:30:23;102373.59;;;26.44;58.70
71666;BME280;59503;53.486;10.196;2023-09-07T11:32:49;102381.81;;;26.51;60.52
71666;BME280;59503;53.486;10.196;2023-09-07T11:35:14;102382.41;;;26.58;57.84
71666;BME280;59503;53.486;10.196;2023-09-07T11:37:40;102379.72;;;26.55;57.47
71666;BME280;59503;53.486;10.196;2023-09-07T11:40:06;102382.34;;;26.62;57.28
71666;BME280;59503;53.486;10.196;2023-09-07T11:42:38;102375.91;;;26.65;60.28
71666;BME280;59503;53.486;10.196;2023-09-07T11:45:06;102374.72;;;26.66;60.71
71666;BME280;59503;53.486;10.196;2023-09-07T11:47:31;102363.13;;;26.67;61.71
71666;BME280;59503;53.486;10.196;2023-09-07T11:49:57;102369.00;;;26.73;59.38
71666;BME280;59503;53.486;10.196;2023-09-07T11:52:22;102365.31;;;26.76;56.27
71666;BME280;59503;53.486;10.196;2023-09-07T11:54:47;102367.59;;;26.81;56.17
71666;BME280;59503;53.486;10.196;2023-09-07T11:57:13;102358.88;;;26.79;52.90
71666;BME280;59503;53.486;10.196;2023-09-07T11:59:41;102362.69;;;26.85;53.08
71666;BME280;59503;53.486;10.196;2023-09-07T12:02:06;102366.81;;;26.80;52.31
71666;BME280;59503;53.486;10.196;2023-09-07T12:04:32;102361.22;;;26.80;52.80
71666;BME280;59503;53.486;10.196;2023-09-07T12:06:58;102358.00;;;26.82;52.38
71666;BME280;59503;53.486;10.196;2023-09-07T12:09:24;102354.69;;;26.87;57.39
71666;BME280;59503;53.486;10.196;2023-09-07T12:11:49;102345.78;;;26.92;53.72
71666;BME280;59503;53.486;10.196;2023-09-07T12:14:14;102348.78;;;27.01;52.96
71666;BME280;59503;53.486;10.196;2023-09-07T12:16:40;102349.88;;;27.04;50.89
71666;BME280;59503;53.486;10.196;2023-09-07T12:19:06;102345.28;;;27.13;51.35
71666;BME280;59503;53.486;10.196;2023-09-07T12:21:31;102339.53;;;27.04;50.75
71666;BME280;59503;53.486;10.196;2023-09-07T12:23:56;102333.41;;;27.09;50.76
71666;BME280;59503;53.486;10.196;2023-09-07T12:26:22;102334.88;;;27.14;50.98
71666;BME280;59503;53.486;10.196;2023-09-07T12:28:47;102352.00;;;27.16;51.48